sensor_id;sensor_type;location;lat;lon;timestamp;temperature;humidity
70271;SHT31;57680;54.292;18.598;2024-02-04T00:00:14;5.28;81.23
70271;SHT31;57680;54.292;18.598;2024-02-04T00:02:40;5.31;81.56
70271;SHT31;57680;54.292;18.598;2024-02-04T00:05:06;5.27;81.58
70271;SHT31;57680;54.292;18.598;2024-02-04T00:07:31;5.34;81.27
70271;SHT31;57680;54.292;18.598;2024-02-04T00:09:56;5.42;80.70
70271;SHT31;57680;54.292;18.598;2024-02-04T00:12:22;5.42;81.16
70271;SHT31;57680;54.292;18.598;2024-02-04T00:14:47;5.42;81.21
70271;SHT31;57680;54.292;18.598;2024-02-04T00:17:12;5.43;80.86
70271;SHT31;57680;54.292;18.598;2024-02-04T00:19:38;5.48;80.68
70271;SHT31;57680;54.292;18.598;2024-02-04T00:22:03;5.48;80.42
70271;SHT31;57680;54.292;18.598;2024-02-04T00:24:29;5.41;81.17
70271;SHT31;57680;54.292;18.598;2024-02-04T00:26:58;5.43;80.91
70271;SHT31;57680;54.292;18.598;2024-02-04T00:29:26;5.42;80.99
70271;SHT31;57680;54.292;18.598;2024-02-04T00:31:51;5.41;81.05
70271;SHT31;57680;54.292;18.598;2024-02-04T00:34:17;5.41;80.77
70271;SHT31;57680;54.292;18.598;2024-02-04T00:36:42;5.51;80.43
70271;SHT31;57680;54.292;18.598;2024-02-04T00:39:08;5.48;80.78
70271;SHT31;57680;54.292;18.598;2024-02-04T00:41:33;5.34;80.72
70271;SHT31;57680;54.292;18.598;2024-02-04T00:43:59;5.34;80.79
70271;SHT31;57680;54.292;18.598;2024-02-04T00:46:24;5.28;80.79
70271;SHT31;57680;54.292;18.598;2024-02-04T00:48:50;5.30;80.65
70271;SHT31;57680;54.292;18.598;2024-02-04T00:51:15;5.17;80.65
70271;SHT31;57680;54.292;18.598;2024-02-04T00:53:40;5.21;80.77
70271;SHT31;57680;54.292;18.598;2024-02-04T00:56:06;5.36;79.87
70271;SHT31;57680;54.292;18.598;2024-02-04T00:58:31;5.22;80.47
70271;SHT31;57680;54.292;18.598;2024-02-04T01:00:56;5.18;80.73
70271;SHT31;57680;54.292;18.598;2024-02-04T01:03:22;5.20;80.32
70271;SHT31;57680;54.292;18.598;2024-02-04T01:05:47;5.28;80.47
70271;SHT31;57680;54.292;18.598;2024-02-04T01:08:13;5.21;80.49
70271;SHT31;57680;54.292;18.598;2024-02-04T01:10:38;5.15;80.74
70271;SHT31;57680;54.292;18.598;2024-02-04T01:13:04;5.20;80.88
70271;SHT31;57680;54.292;18.598;2024-02-04T01:15:29;5.12;81.15
70271;SHT31;57680;54.292;18.598;2024-02-04T01:17:54;5.15;80.95
70271;SHT31;57680;54.292;18.598;2024-02-04T01:20:20;5.32;80.10
70271;SHT31;57680;54.292;18.598;2024-02-04T01:22:45;5.34;80.13
70271;SHT31;57680;54.292;18.598;2024-02-04T01:25:10;5.21;80.71
70271;SHT31;57680;54.292;18.598;2024-02-04T01:27:36;5.27;80.64
70271;SHT31;57680;54.292;18.598;2024-02-04T01:30:01;5.21;80.72
70271;SHT31;57680;54.292;18.598;2024-02-04T01:32:26;5.21;80.84
70271;SHT31;57680;54.292;18.598;2024-02-04T01:34:52;5.22;80.55
70271;SHT31;57680;54.292;18.598;2024-02-04T01:37:17;5.15;81.05
70271;SHT31;57680;54.292;18.598;2024-02-04T01:39:43;5.27;80.73
70271;SHT31;57680;54.292;18.598;2024-02-04T01:42:08;5.17;80.91
70271;SHT31;57680;54.292;18.598;2024-02-04T01:44:33;5.14;80.97
70271;SHT31;57680;54.292;18.598;2024-02-04T01:46:59;5.20;80.33
70271;SHT31;57680;54.292;18.598;2024-02-04T01:49:24;5.15;80.74
70271;SHT31;57680;54.292;18.598;2024-02-04T01:51:50;5.12;80.73
70271;SHT31;57680;54.292;18.598;2024-02-04T01:54:15;5.12;80.66
70271;SHT31;57680;54.292;18.598;2024-02-04T01:56:41;5.12;80.85
70271;SHT31;57680;54.292;18.598;2024-02-04T01:59:07;5.11;80.67
70271;SHT31;57680;54.292;18.598;2024-02-04T02:01:34;5.21;80.16
70271;SHT31;57680;54.292;18.598;2024-02-04T02:03:59;5.10;80.81
70271;SHT31;57680;54.292;18.598;2024-02-04T02:06:25;5.05;80.70
70271;SHT31;57680;54.292;18.598;2024-02-04T02:08:52;5.05;80.03
70271;SHT31;57680;54.292;18.598;2024-02-04T02:11:41;5.04;80.37
70271;SHT31;57680;54.292;18.598;2024-02-04T02:14:19;5.08;79.94
70271;SHT31;57680;54.292;18.598;2024-02-04T02:16:46;5.04;80.41
70271;SHT31;57680;54.292;18.598;2024-02-04T02:22:24;4.95;80.68
70271;SHT31;57680;54.292;18.598;2024-02-04T02:24:51;4.90;80.79
70271;SHT31;57680;54.292;18.598;2024-02-04T02:27:16;4.95;80.77
70271;SHT31;57680;54.292;18.598;2024-02-04T02:29:42;5.03;80.90
70271;SHT31;57680;54.292;18.598;2024-02-04T02:32:07;4.98;80.70
70271;SHT31;57680;54.292;18.598;2024-02-04T02:34:33;5.01;80.66
70271;SHT31;57680;54.292;18.598;2024-02-04T02:39:40;4.95;81.18
70271;SHT31;57680;54.292;18.598;2024-02-04T02:42:08;5.01;81.23
70271;SHT31;57680;54.292;18.598;2024-02-04T02:44:38;5.08;80.69
70271;SHT31;57680;54.292;18.598;2024-02-04T02:47:05;5.12;80.50
70271;SHT31;57680;54.292;18.598;2024-02-04T02:49:31;5.03;80.85
70271;SHT31;57680;54.292;18.598;2024-02-04T02:51:57;5.01;80.87
70271;SHT31;57680;54.292;18.598;2024-02-04T02:54:22;5.04;80.96
70271;SHT31;57680;54.292;18.598;2024-02-04T02:56:47;5.11;80.54
70271;SHT31;57680;54.292;18.598;2024-02-04T02:59:12;5.14;80.69
70271;SHT31;57680;54.292;18.598;2024-02-04T03:01:41;5.05;80.87
70271;SHT31;57680;54.292;18.598;2024-02-04T03:04:06;5.03;81.22
70271;SHT31;57680;54.292;18.598;2024-02-04T03:06:32;5.11;80.64
70271;SHT31;57680;54.292;18.598;2024-02-04T03:08:57;5.08;80.83
70271;SHT31;57680;54.292;18.598;2024-02-04T03:11:22;5.04;81.29
70271;SHT31;57680;54.292;18.598;2024-02-04T03:13:48;5.11;81.07
70271;SHT31;57680;54.292;18.598;2024-02-04T03:16:13;5.14;80.98
70271;SHT31;57680;54.292;18.598;2024-02-04T03:18:40;5.11;81.08
70271;SHT31;57680;54.292;18.598;2024-02-04T03:21:12;5.05;81.27
70271;SHT31;57680;54.292;18.598;2024-02-04T03:23:37;4.91;81.98
70271;SHT31;57680;54.292;18.598;2024-02-04T03:26:02;4.97;81.55
70271;SHT31;57680;54.292;18.598;2024-02-04T03:28:28;5.00;81.61
70271;SHT31;57680;54.292;18.598;2024-02-04T03:30:53;4.95;81.78
70271;SHT31;57680;54.292;18.598;2024-02-04T03:33:18;4.91;81.82
70271;SHT31;57680;54.292;18.598;2024-02-04T03:35:44;4.95;81.83
70271;SHT31;57680;54.292;18.598;2024-02-04T03:38:09;4.97;81.61
70271;SHT31;57680;54.292;18.598;2024-02-04T03:40:34;5.00;81.71
70271;SHT31;57680;54.292;18.598;2024-02-04T03:43:00;5.01;81.43
70271;SHT31;57680;54.292;18.598;2024-02-04T03:45:25;5.07;81.11
70271;SHT31;57680;54.292;18.598;2024-02-04T03:47:50;5.00;81.51
70271;SHT31;57680;54.292;18.598;2024-02-04T03:50:16;5.11;81.54
70271;SHT31;57680;54.292;18.598;2024-02-04T03:52:41;5.03;81.68
70271;SHT31;57680;54.292;18.598;2024-02-04T03:55:07;5.01;81.94
70271;SHT31;57680;54.292;18.598;2024-02-04T03:57:32;5.10;81.49
70271;SHT31;57680;54.292;18.598;2024-02-04T03:59:57;5.17;81.43
70271;SHT31;57680;54.292;18.598;2024-02-04T04:02:23;5.11;81.54
70271;SHT31;57680;54.292;18.598;2024-02-04T04:04:48;5.07;81.81
70271;SHT31;57680;54.292;18.598;2024-02-04T04:07:13;5.15;81.51
70271;SHT31;57680;54.292;18.598;2024-02-04T04:09:39;5.11;81.55
70271;SHT31;57680;54.292;18.598;2024-02-04T04:12:04;5.03;81.86
70271;SHT31;57680;54.292;18.598;2024-02-04T04:14:30;4.98;81.89
70271;SHT31;57680;54.292;18.598;2024-02-04T04:16:55;5.11;81.17
70271;SHT31;57680;54.292;18.598;2024-02-04T04:19:21;5.12;81.35
70271;SHT31;57680;54.292;18.598;2024-02-04T04:21:46;5.08;81.64
70271;SHT31;57680;54.292;18.598;2024-02-04T04:24:11;5.07;81.44
70271;SHT31;57680;54.292;18.598;2024-02-04T04:26:37;5.00;81.27
70271;SHT31;57680;54.292;18.598;2024-02-04T04:29:02;5.14;80.75
70271;SHT31;57680;54.292;18.598;2024-02-04T04:31:27;5.07;81.05
70271;SHT31;57680;54.292;18.598;2024-02-04T04:33:53;5.03;81.03
70271;SHT31;57680;54.292;18.598;2024-02-04T04:36:18;5.11;80.76
70271;SHT31;57680;54.292;18.598;2024-02-04T04:38:43;5.15;80.71
70271;SHT31;57680;54.292;18.598;2024-02-04T04:41:09;5.10;80.78
70271;SHT31;57680;54.292;18.598;2024-02-04T04:43:36;5.15;80.37
70271;SHT31;57680;54.292;18.598;2024-02-04T04:46:02;5.08;80.83
70271;SHT31;57680;54.292;18.598;2024-02-04T04:48:27;5.15;80.51
70271;SHT31;57680;54.292;18.598;2024-02-04T04:50:52;5.24;80.14
70271;SHT31;57680;54.292;18.598;2024-02-04T04:53:18;5.07;80.77
70271;SHT31;57680;54.292;18.598;2024-02-04T04:55:43;5.05;80.74
70271;SHT31;57680;54.292;18.598;2024-02-04T04:58:08;5.12;80.04
70271;SHT31;57680;54.292;18.598;2024-02-04T05:00:34;5.21;79.82
70271;SHT31;57680;54.292;18.598;2024-02-04T05:02:59;5.18;79.75
70271;SHT31;57680;54.292;18.598;2024-02-04T05:05:24;5.28;79.67
70271;SHT31;57680;54.292;18.598;2024-02-04T05:07:50;5.12;80.02
70271;SHT31;57680;54.292;18.598;2024-02-04T05:10:15;5.18;80.11
70271;SHT31;57680;54.292;18.598;2024-02-04T05:12:40;5.14;80.52
70271;SHT31;57680;54.292;18.598;2024-02-04T05:15:06;5.20;80.05
70271;SHT31;57680;54.292;18.598;2024-02-04T05:17:31;5.18;79.73
70271;SHT31;57680;54.292;18.598;2024-02-04T05:19:57;5.12;80.16
70271;SHT31;57680;54.292;18.598;2024-02-04T05:22:22;5.15;80.31
70271;SHT31;57680;54.292;18.598;2024-02-04T05:24:47;5.14;80.38
70271;SHT31;57680;54.292;18.598;2024-02-04T05:27:13;5.20;80.10
70271;SHT31;57680;54.292;18.598;2024-02-04T05:29:38;5.10;80.44
70271;SHT31;57680;54.292;18.598;2024-02-04T05:32:04;5.07;80.51
70271;SHT31;57680;54.292;18.598;2024-02-04T05:34:29;5.03;80.88
70271;SHT31;57680;54.292;18.598;2024-02-04T05:36:54;5.04;80.74
70271;SHT31;57680;54.292;18.598;2024-02-04T05:39:20;5.08;80.32
70271;SHT31;57680;54.292;18.598;2024-02-04T05:41:45;5.08;80.38
70271;SHT31;57680;54.292;18.598;2024-02-04T05:44:10;5.12;79.96
70271;SHT31;57680;54.292;18.598;2024-02-04T05:46:36;5.24;79.88
70271;SHT31;57680;54.292;18.598;2024-02-04T05:49:02;5.17;80.09
70271;SHT31;57680;54.292;18.598;2024-02-04T05:51:27;5.07;80.40
70271;SHT31;57680;54.292;18.598;2024-02-04T05:53:53;5.15;80.34
70271;SHT31;57680;54.292;18.598;2024-02-04T05:56:19;5.07;80.92
70271;SHT31;57680;54.292;18.598;2024-02-04T05:58:44;5.17;80.70
70271;SHT31;57680;54.292;18.598;2024-02-04T06:01:10;5.17;80.82
70271;SHT31;57680;54.292;18.598;2024-02-04T06:03:35;5.15;80.83
70271;SHT31;57680;54.292;18.598;2024-02-04T06:06:00;5.11;80.86
70271;SHT31;57680;54.292;18.598;2024-02-04T06:08:26;5.03;81.33
70271;SHT31;57680;54.292;18.598;2024-02-04T06:10:51;5.08;81.11
70271;SHT31;57680;54.292;18.598;2024-02-04T06:13:16;5.08;81.61
70271;SHT31;57680;54.292;18.598;2024-02-04T06:15:42;5.21;81.25
70271;SHT31;57680;54.292;18.598;2024-02-04T06:18:07;5.12;81.46
70271;SHT31;57680;54.292;18.598;2024-02-04T06:20:32;5.18;81.47
70271;SHT31;57680;54.292;18.598;2024-02-04T06:22:57;5.27;81.17
70271;SHT31;57680;54.292;18.598;2024-02-04T06:25:23;5.18;81.47
70271;SHT31;57680;54.292;18.598;2024-02-04T06:27:49;5.11;81.88
70271;SHT31;57680;54.292;18.598;2024-02-04T06:30:14;5.18;81.94
70271;SHT31;57680;54.292;18.598;2024-02-04T06:32:40;5.18;82.11
70271;SHT31;57680;54.292;18.598;2024-02-04T06:35:06;5.20;82.43
70271;SHT31;57680;54.292;18.598;2024-02-04T06:37:32;5.27;82.60
70271;SHT31;57680;54.292;18.598;2024-02-04T06:39:57;5.24;83.23
70271;SHT31;57680;54.292;18.598;2024-02-04T06:42:22;5.22;83.62
70271;SHT31;57680;54.292;18.598;2024-02-04T06:44:48;5.10;84.56
70271;SHT31;57680;54.292;18.598;2024-02-04T06:47:13;5.07;85.32
70271;SHT31;57680;54.292;18.598;2024-02-04T06:49:39;5.08;85.67
70271;SHT31;57680;54.292;18.598;2024-02-04T06:52:04;5.07;85.84
70271;SHT31;57680;54.292;18.598;2024-02-04T06:54:30;5.10;85.97
70271;SHT31;57680;54.292;18.598;2024-02-04T06:56:55;5.10;86.01
70271;SHT31;57680;54.292;18.598;2024-02-04T06:59:20;5.04;87.09
70271;SHT31;57680;54.292;18.598;2024-02-04T07:01:46;5.00;87.18
70271;SHT31;57680;54.292;18.598;2024-02-04T07:04:11;4.97;87.65
70271;SHT31;57680;54.292;18.598;2024-02-04T07:06:37;4.85;88.39
70271;SHT31;57680;54.292;18.598;2024-02-04T07:09:02;4.85;88.00
70271;SHT31;57680;54.292;18.598;2024-02-04T07:11:27;4.85;88.82
70271;SHT31;57680;54.292;18.598;2024-02-04T07:13:52;4.90;88.47
70271;SHT31;57680;54.292;18.598;2024-02-04T07:16:18;5.07;88.01
70271;SHT31;57680;54.292;18.598;2024-02-04T07:18:43;5.01;88.34
70271;SHT31;57680;54.292;18.598;2024-02-04T07:21:08;5.10;88.00
70271;SHT31;57680;54.292;18.598;2024-02-04T07:23:34;5.03;88.53
70271;SHT31;57680;54.292;18.598;2024-02-04T07:25:59;4.93;89.06
70271;SHT31;57680;54.292;18.598;2024-02-04T07:28:24;5.05;88.82
70271;SHT31;57680;54.292;18.598;2024-02-04T07:30:50;5.03;88.87
70271;SHT31;57680;54.292;18.598;2024-02-04T07:33:15;5.03;88.77
70271;SHT31;57680;54.292;18.598;2024-02-04T07:35:40;4.95;89.66
70271;SHT31;57680;54.292;18.598;2024-02-04T07:38:06;4.93;89.72
70271;SHT31;57680;54.292;18.598;2024-02-04T07:40:31;4.98;89.30
70271;SHT31;57680;54.292;18.598;2024-02-04T07:42:56;5.01;89.65
70271;SHT31;57680;54.292;18.598;2024-02-04T07:45:22;4.95;90.22
70271;SHT31;57680;54.292;18.598;2024-02-04T07:47:47;5.01;89.95
70271;SHT31;57680;54.292;18.598;2024-02-04T07:50:12;4.91;90.45
70271;SHT31;57680;54.292;18.598;2024-02-04T07:52:38;5.00;90.43
70271;SHT31;57680;54.292;18.598;2024-02-04T07:55:03;4.97;90.27
70271;SHT31;57680;54.292;18.598;2024-02-04T07:57:29;4.98;90.45
70271;SHT31;57680;54.292;18.598;2024-02-04T07:59:54;5.03;90.25
70271;SHT31;57680;54.292;18.598;2024-02-04T08:02:19;4.88;91.02
70271;SHT31;57680;54.292;18.598;2024-02-04T08:04:45;4.84;91.49
70271;SHT31;57680;54.292;18.598;2024-02-04T08:07:10;4.98;90.91
70271;SHT31;57680;54.292;18.598;2024-02-04T08:09:35;4.97;90.65
70271;SHT31;57680;54.292;18.598;2024-02-04T08:12:01;5.01;90.52
70271;SHT31;57680;54.292;18.598;2024-02-04T08:14:26;5.01;90.60
70271;SHT31;57680;54.292;18.598;2024-02-04T08:16:51;5.10;90.09
70271;SHT31;57680;54.292;18.598;2024-02-04T08:19:17;5.10;89.79
70271;SHT31;57680;54.292;18.598;2024-02-04T08:21:42;5.15;89.36
70271;SHT31;57680;54.292;18.598;2024-02-04T08:24:07;5.10;89.95
70271;SHT31;57680;54.292;18.598;2024-02-04T08:26:33;5.12;89.83
70271;SHT31;57680;54.292;18.598;2024-02-04T08:28:59;5.17;89.77
70271;SHT31;57680;54.292;18.598;2024-02-04T08:31:24;5.20;89.53
70271;SHT31;57680;54.292;18.598;2024-02-04T08:33:50;5.20;89.76
70271;SHT31;57680;54.292;18.598;2024-02-04T08:36:15;5.10;90.35
70271;SHT31;57680;54.292;18.598;2024-02-04T08:38:40;5.07;90.92
70271;SHT31;57680;54.292;18.598;2024-02-04T08:41:06;5.14;90.77
70271;SHT31;57680;54.292;18.598;2024-02-04T08:43:32;5.17;90.55
70271;SHT31;57680;54.292;18.598;2024-02-04T08:45:57;5.07;91.37
70271;SHT31;57680;54.292;18.598;2024-02-04T08:48:22;5.10;91.50
70271;SHT31;57680;54.292;18.598;2024-02-04T08:50:48;4.94;92.06
70271;SHT31;57680;54.292;18.598;2024-02-04T08:53:13;4.97;92.29
70271;SHT31;57680;54.292;18.598;2024-02-04T08:55:38;4.87;92.75
70271;SHT31;57680;54.292;18.598;2024-02-04T08:58:04;4.80;93.27
70271;SHT31;57680;54.292;18.598;2024-02-04T09:00:29;4.90;92.24
70271;SHT31;57680;54.292;18.598;2024-02-04T09:02:54;4.85;92.92
70271;SHT31;57680;54.292;18.598;2024-02-04T09:05:20;4.83;93.16
70271;SHT31;57680;54.292;18.598;2024-02-04T09:07:45;4.83;93.33
70271;SHT31;57680;54.292;18.598;2024-02-04T09:10:11;4.91;93.19
70271;SHT31;57680;54.292;18.598;2024-02-04T09:12:36;4.91;91.57
70271;SHT31;57680;54.292;18.598;2024-02-04T09:15:02;5.01;91.88
70271;SHT31;57680;54.292;18.598;2024-02-04T09:17:27;5.08;91.34
70271;SHT31;57680;54.292;18.598;2024-02-04T09:19:53;4.97;91.42
70271;SHT31;57680;54.292;18.598;2024-02-04T09:22:18;5.01;91.25
70271;SHT31;57680;54.292;18.598;2024-02-04T09:24:43;4.95;92.13
70271;SHT31;57680;54.292;18.598;2024-02-04T09:27:09;5.00;92.21
70271;SHT31;57680;54.292;18.598;2024-02-04T09:29:34;5.04;92.04
70271;SHT31;57680;54.292;18.598;2024-02-04T09:31:59;5.04;92.10
70271;SHT31;57680;54.292;18.598;2024-02-04T09:34:25;5.10;92.12
70271;SHT31;57680;54.292;18.598;2024-02-04T09:36:50;5.11;92.17
70271;SHT31;57680;54.292;18.598;2024-02-04T09:39:15;5.25;90.58
70271;SHT31;57680;54.292;18.598;2024-02-04T09:41:41;5.32;90.50
70271;SHT31;57680;54.292;18.598;2024-02-04T09:44:06;5.34;91.06
70271;SHT31;57680;54.292;18.598;2024-02-04T09:46:32;5.45;90.26
70271;SHT31;57680;54.292;18.598;2024-02-04T09:48:57;5.46;90.03
70271;SHT31;57680;54.292;18.598;2024-02-04T09:51:25;5.45;89.78
70271;SHT31;57680;54.292;18.598;2024-02-04T09:53:56;5.49;89.26
70271;SHT31;57680;54.292;18.598;2024-02-04T09:56:25;5.60;89.14
70271;SHT31;57680;54.292;18.598;2024-02-04T09:58:51;5.56;89.42
70271;SHT31;57680;54.292;18.598;2024-02-04T10:01:16;5.60;89.27
70271;SHT31;57680;54.292;18.598;2024-02-04T10:03:42;5.67;89.34
70271;SHT31;57680;54.292;18.598;2024-02-04T10:06:07;5.62;89.27
70271;SHT31;57680;54.292;18.598;2024-02-04T10:08:35;5.65;89.40
70271;SHT31;57680;54.292;18.598;2024-02-04T10:11:01;5.66;89.26
70271;SHT31;57680;54.292;18.598;2024-02-04T10:13:26;5.60;89.53
70271;SHT31;57680;54.292;18.598;2024-02-04T10:15:52;5.58;90.26
70271;SHT31;57680;54.292;18.598;2024-02-04T10:18:18;5.59;90.46
70271;SHT31;57680;54.292;18.598;2024-02-04T10:20:43;5.49;90.65
70271;SHT31;57680;54.292;18.598;2024-02-04T10:23:09;5.55;90.45
70271;SHT31;57680;54.292;18.598;2024-02-04T10:25:37;5.63;89.30
70271;SHT31;57680;54.292;18.598;2024-02-04T10:28:03;5.55;90.05
70271;SHT31;57680;54.292;18.598;2024-02-04T10:30:29;5.53;90.11
70271;SHT31;57680;54.292;18.598;2024-02-04T10:32:54;5.52;90.64
70271;SHT31;57680;54.292;18.598;2024-02-04T10:35:20;5.43;90.74
70271;SHT31;57680;54.292;18.598;2024-02-04T10:37:46;5.46;91.23
70271;SHT31;57680;54.292;18.598;2024-02-04T10:40:11;5.41;91.07
70271;SHT31;57680;54.292;18.598;2024-02-04T10:42:37;5.52;90.74
70271;SHT31;57680;54.292;18.598;2024-02-04T10:45:07;5.38;91.45
70271;SHT31;57680;54.292;18.598;2024-02-04T10:47:34;5.28;91.53
70271;SHT31;57680;54.292;18.598;2024-02-04T10:50:03;5.31;91.16
70271;SHT31;57680;54.292;18.598;2024-02-04T10:52:37;5.28;91.25
70271;SHT31;57680;54.292;18.598;2024-02-04T10:55:07;5.31;91.90
70271;SHT31;57680;54.292;18.598;2024-02-04T10:57:32;5.31;91.95
70271;SHT31;57680;54.292;18.598;2024-02-04T10:59:59;5.21;91.97
70271;SHT31;57680;54.292;18.598;2024-02-04T11:02:25;5.25;92.55
70271;SHT31;57680;54.292;18.598;2024-02-04T11:04:53;5.27;91.73
70271;SHT31;57680;54.292;18.598;2024-02-04T11:07:20;5.31;91.83
70271;SHT31;57680;54.292;18.598;2024-02-04T11:09:46;5.31;92.00
70271;SHT31;57680;54.292;18.598;2024-02-04T11:12:14;5.27;92.25
70271;SHT31;57680;54.292;18.598;2024-02-04T11:14:42;5.27;91.90
70271;SHT31;57680;54.292;18.598;2024-02-04T11:26:17;5.18;92.31
70271;SHT31;57680;54.292;18.598;2024-02-04T11:28:43;5.18;92.37
70271;SHT31;57680;54.292;18.598;2024-02-04T11:31:17;5.22;91.90
70271;SHT31;57680;54.292;18.598;2024-02-04T11:33:42;5.21;92.42
70271;SHT31;57680;54.292;18.598;2024-02-04T11:36:13;5.25;92.31
70271;SHT31;57680;54.292;18.598;2024-02-04T11:38:39;5.17;92.67
70271;SHT31;57680;54.292;18.598;2024-02-04T11:41:05;5.24;92.53
70271;SHT31;57680;54.292;18.598;2024-02-04T11:43:34;5.22;92.95
70271;SHT31;57680;54.292;18.598;2024-02-04T11:46:03;5.27;91.88
70271;SHT31;57680;54.292;18.598;2024-02-04T11:48:35;5.27;91.58
70271;SHT31;57680;54.292;18.598;2024-02-04T11:51:00;5.32;91.75
70271;SHT31;57680;54.292;18.598;2024-02-04T11:53:26;5.24;91.80
70271;SHT31;57680;54.292;18.598;2024-02-04T11:55:51;5.20;92.53
70271;SHT31;57680;54.292;18.598;2024-02-04T11:58:18;5.22;92.90
70271;SHT31;57680;54.292;18.598;2024-02-04T12:00:44;5.15;93.32
70271;SHT31;57680;54.292;18.598;2024-02-04T12:03:10;5.17;93.15
70271;SHT31;57680;54.292;18.598;2024-02-04T12:05:36;5.18;93.03
70271;SHT31;57680;54.292;18.598;2024-02-04T12:08:06;5.17;93.09
70271;SHT31;57680;54.292;18.598;2024-02-04T12:10:33;5.18;93.16
70271;SHT31;57680;54.292;18.598;2024-02-04T12:13:05;5.17;93.36
70271;SHT31;57680;54.292;18.598;2024-02-04T12:15:31;5.17;93.83
70271;SHT31;57680;54.292;18.598;2024-02-04T12:18:09;5.10;93.96
70271;SHT31;57680;54.292;18.598;2024-02-04T12:20:36;5.17;93.33
70271;SHT31;57680;54.292;18.598;2024-02-04T12:23:06;5.24;93.02
70271;SHT31;57680;54.292;18.598;2024-02-04T12:25:32;5.15;93.51
70271;SHT31;57680;54.292;18.598;2024-02-04T12:28:02;5.17;93.23
70271;SHT31;57680;54.292;18.598;2024-02-04T12:30:29;5.25;93.54
70271;SHT31;57680;54.292;18.598;2024-02-04T12:33:01;5.20;93.69
70271;SHT31;57680;54.292;18.598;2024-02-04T12:35:27;5.31;92.77
70271;SHT31;57680;54.292;18.598;2024-02-04T12:37:53;5.30;93.13
70271;SHT31;57680;54.292;18.598;2024-02-04T12:40:27;5.30;93.37
70271;SHT31;57680;54.292;18.598;2024-02-04T12:43:00;5.34;93.08
70271;SHT31;57680;54.292;18.598;2024-02-04T12:45:26;5.34;92.89
70271;SHT31;57680;54.292;18.598;2024-02-04T12:47:53;5.28;92.87
70271;SHT31;57680;54.292;18.598;2024-02-04T12:50:21;5.39;92.39
70271;SHT31;57680;54.292;18.598;2024-02-04T12:52:48;5.38;92.22
70271;SHT31;57680;54.292;18.598;2024-02-04T12:55:24;5.30;92.85
70271;SHT31;57680;54.292;18.598;2024-02-04T12:57:50;5.35;92.42
70271;SHT31;57680;54.292;18.598;2024-02-04T13:00:19;5.46;91.63
70271;SHT31;57680;54.292;18.598;2024-02-04T13:02:44;5.45;92.23
70271;SHT31;57680;54.292;18.598;2024-02-04T13:05:10;5.48;92.05
70271;SHT31;57680;54.292;18.598;2024-02-04T13:07:46;5.51;91.65
70271;SHT31;57680;54.292;18.598;2024-02-04T13:10:13;5.58;91.44
70271;SHT31;57680;54.292;18.598;2024-02-04T13:12:38;5.48;92.31
70271;SHT31;57680;54.292;18.598;2024-02-04T13:15:04;5.45;92.42
70271;SHT31;57680;54.292;18.598;2024-02-04T13:17:29;5.45;92.48
70271;SHT31;57680;54.292;18.598;2024-02-04T13:19:54;5.48;91.98
70271;SHT31;57680;54.292;18.598;2024-02-04T13:22:20;5.46;91.88
70271;SHT31;57680;54.292;18.598;2024-02-04T13:24:45;5.43;92.48
70271;SHT31;57680;54.292;18.598;2024-02-04T13:27:10;5.39;92.33
70271;SHT31;57680;54.292;18.598;2024-02-04T13:29:36;5.38;92.89
70271;SHT31;57680;54.292;18.598;2024-02-04T13:32:02;5.35;93.28
70271;SHT31;57680;54.292;18.598;2024-02-04T13:34:27;5.32;93.49
70271;SHT31;57680;54.292;18.598;2024-02-04T13:36:52;5.25;93.84
70271;SHT31;57680;54.292;18.598;2024-02-04T13:39:18;5.35;93.34
70271;SHT31;57680;54.292;18.598;2024-02-04T13:41:44;5.14;94.43
70271;SHT31;57680;54.292;18.598;2024-02-04T13:44:10;5.20;94.24
70271;SHT31;57680;54.292;18.598;2024-02-04T13:46:35;5.12;94.35
70271;SHT31;57680;54.292;18.598;2024-02-04T13:49:00;5.20;94.18
70271;SHT31;57680;54.292;18.598;2024-02-04T13:51:26;5.11;94.41
70271;SHT31;57680;54.292;18.598;2024-02-04T13:53:51;5.24;94.49
70271;SHT31;57680;54.292;18.598;2024-02-04T13:56:16;5.17;94.63
70271;SHT31;57680;54.292;18.598;2024-02-04T13:58:42;5.27;93.88
70271;SHT31;57680;54.292;18.598;2024-02-04T14:01:07;5.36;93.41
70271;SHT31;57680;54.292;18.598;2024-02-04T14:03:32;5.35;93.26
70271;SHT31;57680;54.292;18.598;2024-02-04T14:05:57;5.43;93.31
70271;SHT31;57680;54.292;18.598;2024-02-04T14:08:23;5.45;92.54
70271;SHT31;57680;54.292;18.598;2024-02-04T14:10:48;5.46;92.74
70271;SHT31;57680;54.292;18.598;2024-02-04T14:13:13;5.41;92.91
70271;SHT31;57680;54.292;18.598;2024-02-04T14:15:39;5.53;91.79
70271;SHT31;57680;54.292;18.598;2024-02-04T14:18:05;5.49;91.65
70271;SHT31;57680;54.292;18.598;2024-02-04T14:20:30;5.58;91.12
70271;SHT31;57680;54.292;18.598;2024-02-04T14:22:55;5.59;91.19
70271;SHT31;57680;54.292;18.598;2024-02-04T14:25:21;5.59;91.04
70271;SHT31;57680;54.292;18.598;2024-02-04T14:27:46;5.65;90.66
70271;SHT31;57680;54.292;18.598;2024-02-04T14:30:12;5.60;91.16
70271;SHT31;57680;54.292;18.598;2024-02-04T14:32:38;5.62;90.84
70271;SHT31;57680;54.292;18.598;2024-02-04T14:35:03;5.58;91.40
70271;SHT31;57680;54.292;18.598;2024-02-04T14:37:29;5.51;91.90
70271;SHT31;57680;54.292;18.598;2024-02-04T14:39:54;5.51;91.84
70271;SHT31;57680;54.292;18.598;2024-02-04T14:42:19;5.53;91.22
70271;SHT31;57680;54.292;18.598;2024-02-04T14:44:45;5.52;91.66
70271;SHT31;57680;54.292;18.598;2024-02-04T14:47:10;5.46;92.03
70271;SHT31;57680;54.292;18.598;2024-02-04T14:49:35;5.38;91.99
70271;SHT31;57680;54.292;18.598;2024-02-04T14:52:01;5.46;91.93
70271;SHT31;57680;54.292;18.598;2024-02-04T14:54:26;5.42;92.08
70271;SHT31;57680;54.292;18.598;2024-02-04T14:56:51;5.53;91.23
70271;SHT31;57680;54.292;18.598;2024-02-04T14:59:17;5.60;90.13
70271;SHT31;57680;54.292;18.598;2024-02-04T15:01:45;5.67;89.97
70271;SHT31;57680;54.292;18.598;2024-02-04T15:04:10;5.66;89.69
70271;SHT31;57680;54.292;18.598;2024-02-04T15:06:36;5.66;90.13
70271;SHT31;57680;54.292;18.598;2024-02-04T15:09:01;5.74;89.03
70271;SHT31;57680;54.292;18.598;2024-02-04T15:11:27;5.72;89.50
70271;SHT31;57680;54.292;18.598;2024-02-04T15:13:52;5.74;89.92
70271;SHT31;57680;54.292;18.598;2024-02-04T15:16:18;5.69;89.86
70271;SHT31;57680;54.292;18.598;2024-02-04T15:18:44;5.62;90.30
70271;SHT31;57680;54.292;18.598;2024-02-04T15:21:09;5.59;90.26
70271;SHT31;57680;54.292;18.598;2024-02-04T15:23:35;5.55;90.38
70271;SHT31;57680;54.292;18.598;2024-02-04T15:26:01;5.52;90.49
70271;SHT31;57680;54.292;18.598;2024-02-04T15:28:27;5.67;89.88
70271;SHT31;57680;54.292;18.598;2024-02-04T15:30:52;5.69;89.47
70271;SHT31;57680;54.292;18.598;2024-02-04T15:33:18;5.63;90.08
70271;SHT31;57680;54.292;18.598;2024-02-04T15:35:44;5.74;88.99